sensor_id;sensor_type;location;lat;lon;timestamp;pressure;altitude;pressure_sealevel;temperature;humidity
51289;BME280;37372;52.294;5.152;2023-02-23T00:01:56;101323.84;;;6.83;88.28
51289;BME280;37372;52.294;5.152;2023-02-23T00:04:30;101327.44;;;6.83;88.14
51289;BME280;37372;52.294;5.152;2023-02-23T00:06:55;101327.03;;;6.86;88.15
51289;BME280;37372;52.294;5.152;2023-02-23T00:09:21;101325.78;;;6.89;88.05
51289;BME280;37372;52.294;5.152;2023-02-23T00:11:57;101325.63;;;6.90;87.85
51289;BME280;37372;52.294;5.152;2023-02-23T00:14:27;101323.53;;;6.92;87.97
51289;BME280;37372;52.294;5.152;2023-02-23T00:16:58;101324.16;;;6.94;88.11
51289;BME280;37372;52.294;5.152;2023-02-23T00:19:24;101325.41;;;6.92;87.59
51289;BME280;37372;52.294;5.152;2023-02-23T00:21:54;101321.66;;;6.93;87.70
51289;BME280;37372;52.294;5.152;2023-02-23T00:24:23;101328.56;;;6.95;87.83
51289;BME280;37372;52.294;5.152;2023-02-23T00:26:51;101329.44;;;6.96;87.54
51289;BME280;37372;52.294;5.152;2023-02-23T00:29:23;101328.78;;;6.94;87.38
51289;BME280;37372;52.294;5.152;2023-02-23T00:31:55;101327.16;;;6.99;87.73
51289;BME280;37372;52.294;5.152;2023-02-23T00:34:24;101316.59;;;6.90;87.31
51289;BME280;37372;52.294;5.152;2023-02-23T00:36:54;101315.56;;;6.91;87.75
51289;BME280;37372;52.294;5.152;2023-02-23T00:39:22;101317.44;;;6.90;87.67
51289;BME280;37372;52.294;5.152;2023-02-23T00:41:56;101313.03;;;6.89;87.67
51289;BME280;37372;52.294;5.152;2023-02-23T00:44:31;101314.72;;;6.90;87.49
51289;BME280;37372;52.294;5.152;2023-02-23T00:46:59;101322.03;;;6.90;87.65
51289;BME280;37372;52.294;5.152;2023-02-23T00:49:26;101321.00;;;6.91;87.37
51289;BME280;37372;52.294;5.152;2023-02-23T00:51:58;101317.03;;;6.93;87.14
51289;BME280;37372;52.294;5.152;2023-02-23T00:54:24;101319.97;;;6.92;87.08
51289;BME280;37372;52.294;5.152;2023-02-23T00:56:53;101315.91;;;6.88;87.03
51289;BME280;37372;52.294;5.152;2023-02-23T00:59:20;101308.41;;;6.90;87.41
51289;BME280;37372;52.294;5.152;2023-02-23T01:02:01;101313.97;;;6.82;86.54
51289;BME280;37372;52.294;5.152;2023-02-23T01:04:29;101318.00;;;6.86;87.66
51289;BME280;37372;52.294;5.152;2023-02-23T01:07:05;101324.31;;;6.86;87.57
51289;BME280;37372;52.294;5.152;2023-02-23T01:09:32;101321.00;;;6.91;87.15
51289;BME280;37372;52.294;5.152;2023-02-23T01:11:59;101320.75;;;6.86;86.97
51289;BME280;37372;52.294;5.152;2023-02-23T01:14:31;101327.22;;;6.85;87.51
51289;BME280;37372;52.294;5.152;2023-02-23T01:17:01;101318.22;;;6.84;87.52
51289;BME280;37372;52.294;5.152;2023-02-23T01:19:26;101321.22;;;6.89;87.52
51289;BME280;37372;52.294;5.152;2023-02-23T01:21:53;101321.78;;;6.85;87.48
51289;BME280;37372;52.294;5.152;2023-02-23T01:24:20;101315.66;;;6.83;87.45
51289;BME280;37372;52.294;5.152;2023-02-23T01:27:19;101315.22;;;6.79;87.58
51289;BME280;37372;52.294;5.152;2023-02-23T01:29:52;101326.97;;;6.79;87.81
51289;BME280;37372;52.294;5.152;2023-02-23T01:32:24;101321.09;;;6.83;87.95
51289;BME280;37372;52.294;5.152;2023-02-23T01:34:53;101316.25;;;6.78;87.11
51289;BME280;37372;52.294;5.152;2023-02-23T01:37:20;101314.19;;;6.80;87.41
51289;BME280;37372;52.294;5.152;2023-02-23T01:39:50;101325.56;;;6.84;87.67
51289;BME280;37372;52.294;5.152;2023-02-23T01:42:29;101315.22;;;6.79;87.91
51289;BME280;37372;52.294;5.152;2023-02-23T01:47:40;101321.91;;;6.76;87.74
51289;BME280;37372;52.294;5.152;2023-02-23T01:50:06;101319.97;;;6.70;88.08
51289;BME280;37372;52.294;5.152;2023-02-23T01:52:32;101315.53;;;6.69;88.24
51289;BME280;37372;52.294;5.152;2023-02-23T01:55:01;101321.66;;;6.71;88.57
51289;BME280;37372;52.294;5.152;2023-02-23T01:57:26;101319.13;;;6.70;88.27
51289;BME280;37372;52.294;5.152;2023-02-23T01:59:53;101316.84;;;6.73;88.48
51289;BME280;37372;52.294;5.152;2023-02-23T02:02:23;101316.06;;;6.79;87.91
51289;BME280;37372;52.294;5.152;2023-02-23T02:04:59;101319.38;;;6.75;87.63
51289;BME280;37372;52.294;5.152;2023-02-23T02:07:28;101320.59;;;6.72;88.38
51289;BME280;37372;52.294;5.152;2023-02-23T02:09:56;101319.97;;;6.70;88.13
51289;BME280;37372;52.294;5.152;2023-02-23T02:12:38;101319.69;;;6.65;88.41
51289;BME280;37372;52.294;5.152;2023-02-23T02:15:06;101313.19;;;6.66;88.54
51289;BME280;37372;52.294;5.152;2023-02-23T02:18:14;101316.56;;;6.68;88.58
51289;BME280;37372;52.294;5.152;2023-02-23T02:32:58;101316.75;;;6.67;88.03
51289;BME280;37372;52.294;5.152;2023-02-23T02:36:06;101316.97;;;6.65;88.26
51289;BME280;37372;52.294;5.152;2023-02-23T02:41:29;101321.19;;;6.68;88.47
51289;BME280;37372;52.294;5.152;2023-02-23T02:44:14;101314.50;;;6.70;87.85
51289;BME280;37372;52.294;5.152;2023-02-23T02:47:27;101314.44;;;6.64;87.70
51289;BME280;37372;52.294;5.152;2023-02-23T02:50:04;101312.72;;;6.63;87.78
51289;BME280;37372;52.294;5.152;2023-02-23T02:52:54;101321.94;;;6.62;87.57
51289;BME280;37372;52.294;5.152;2023-02-23T02:55:24;101323.19;;;6.59;87.91
51289;BME280;37372;52.294;5.152;2023-02-23T02:57:55;101322.16;;;6.60;88.20
51289;BME280;37372;52.294;5.152;2023-02-23T03:00:30;101316.50;;;6.62;88.02
51289;BME280;37372;52.294;5.152;2023-02-23T03:03:41;101321.09;;;6.61;87.80
51289;BME280;37372;52.294;5.152;2023-02-23T03:06:42;101324.09;;;6.66;87.75
51289;BME280;37372;52.294;5.152;2023-02-23T03:12:30;101320.06;;;6.62;87.78
51289;BME280;37372;52.294;5.152;2023-02-23T03:15:42;101321.09;;;6.61;88.02
51289;BME280;37372;52.294;5.152;2023-02-23T03:19:12;101318.09;;;6.56;88.20
51289;BME280;37372;52.294;5.152;2023-02-23T03:22:31;101320.19;;;6.54;88.21
51289;BME280;37372;52.294;5.152;2023-02-23T03:29:01;101321.25;;;6.53;88.26
51289;BME280;37372;52.294;5.152;2023-02-23T03:35:56;101315.97;;;6.51;87.89
51289;BME280;37372;52.294;5.152;2023-02-23T03:38:55;101324.81;;;6.54;88.57
51289;BME280;37372;52.294;5.152;2023-02-23T03:41:50;101329.41;;;6.53;88.65
51289;BME280;37372;52.294;5.152;2023-02-23T03:44:40;101325.66;;;6.54;88.68
51289;BME280;37372;52.294;5.152;2023-02-23T03:47:33;101336.94;;;6.51;88.43
51289;BME280;37372;52.294;5.152;2023-02-23T03:50:29;101340.31;;;6.53;88.68
51289;BME280;37372;52.294;5.152;2023-02-23T03:53:23;101345.13;;;6.51;88.76
51289;BME280;37372;52.294;5.152;2023-02-23T03:56:11;101340.69;;;6.50;88.37
51289;BME280;37372;52.294;5.152;2023-02-23T03:58:59;101341.56;;;6.50;88.72
51289;BME280;37372;52.294;5.152;2023-02-23T04:01:50;101341.09;;;6.47;88.87
51289;BME280;37372;52.294;5.152;2023-02-23T04:04:38;101351.34;;;6.45;88.79
51289;BME280;37372;52.294;5.152;2023-02-23T04:07:33;101352.75;;;6.41;88.26
51289;BME280;37372;52.294;5.152;2023-02-23T04:10:22;101353.16;;;6.38;88.52
51289;BME280;37372;52.294;5.152;2023-02-23T04:13:29;101354.81;;;6.39;88.97
51289;BME280;37372;52.294;5.152;2023-02-23T04:16:07;101367.78;;;6.37;88.78
51289;BME280;37372;52.294;5.152;2023-02-23T04:18:39;101363.16;;;6.37;88.62
51289;BME280;37372;52.294;5.152;2023-02-23T04:21:07;101364.03;;;6.38;88.62
51289;BME280;37372;52.294;5.152;2023-02-23T04:23:38;101372.88;;;6.40;89.11
51289;BME280;37372;52.294;5.152;2023-02-23T04:26:06;101369.94;;;6.41;89.31
51289;BME280;37372;52.294;5.152;2023-02-23T04:28:32;101367.22;;;6.41;88.75
51289;BME280;37372;52.294;5.152;2023-02-23T04:31:10;101369.09;;;6.41;88.80
51289;BME280;37372;52.294;5.152;2023-02-23T04:33:36;101370.78;;;6.42;88.77
51289;BME280;37372;52.294;5.152;2023-02-23T04:36:02;101365.53;;;6.40;88.78
51289;BME280;37372;52.294;5.152;2023-02-23T04:38:28;101367.41;;;6.40;89.24
51289;BME280;37372;52.294;5.152;2023-02-23T04:41:02;101371.19;;;6.39;89.20
51289;BME280;37372;52.294;5.152;2023-02-23T04:43:29;101372.47;;;6.43;89.25
51289;BME280;37372;52.294;5.152;2023-02-23T04:45:54;101375.38;;;6.41;88.81
51289;BME280;37372;52.294;5.152;2023-02-23T04:48:20;101375.59;;;6.40;88.97
51289;BME280;37372;52.294;5.152;2023-02-23T04:51:01;101383.13;;;6.38;89.07
51289;BME280;37372;52.294;5.152;2023-02-23T04:53:29;101379.06;;;6.34;88.77
51289;BME280;37372;52.294;5.152;2023-02-23T04:55:56;101389.56;;;6.37;88.92
51289;BME280;37372;52.294;5.152;2023-02-23T04:58:22;101389.56;;;6.37;88.91
51289;BME280;37372;52.294;5.152;2023-02-23T05:01:07;101384.97;;;6.37;89.35
51289;BME280;37372;52.294;5.152;2023-02-23T05:03:35;101389.00;;;6.41;89.27
51289;BME280;37372;52.294;5.152;2023-02-23T05:06:00;101383.75;;;6.40;88.78
51289;BME280;37372;52.294;5.152;2023-02-23T05:08:31;101381.88;;;6.40;88.99
51289;BME280;37372;52.294;5.152;2023-02-23T05:11:04;101392.97;;;6.39;89.21
51289;BME280;37372;52.294;5.152;2023-02-23T05:13:32;101386.28;;;6.41;89.13
51289;BME280;37372;52.294;5.152;2023-02-23T05:15:58;101391.75;;;6.41;89.25
51289;BME280;37372;52.294;5.152;2023-02-23T05:18:25;101391.75;;;6.41;88.93
51289;BME280;37372;52.294;5.152;2023-02-23T05:21:04;101397.19;;;6.41;89.28
51289;BME280;37372;52.294;5.152;2023-02-23T05:23:37;101394.66;;;6.40;88.95
51289;BME280;37372;52.294;5.152;2023-02-23T05:26:06;101399.28;;;6.39;89.32
51289;BME280;37372;52.294;5.152;2023-02-23T05:28:37;101397.38;;;6.40;89.30
51289;BME280;37372;52.294;5.152;2023-02-23T05:31:08;101396.34;;;6.41;89.49
51289;BME280;37372;52.294;5.152;2023-02-23T05:33:36;101396.81;;;6.44;89.08
51289;BME280;37372;52.294;5.152;2023-02-23T05:36:09;101398.50;;;6.45;89.29
51289;BME280;37372;52.294;5.152;2023-02-23T05:38:49;101398.03;;;6.42;89.08
51289;BME280;37372;52.294;5.152;2023-02-23T05:41:21;101394.66;;;6.40;88.87
51289;BME280;37372;52.294;5.152;2023-02-23T05:43:51;101403.88;;;6.39;89.07
51289;BME280;37372;52.294;5.152;2023-02-23T05:46:21;101404.25;;;6.36;89.13
51289;BME280;37372;52.294;5.152;2023-02-23T05:49:01;101401.16;;;6.39;89.04
51289;BME280;37372;52.294;5.152;2023-02-23T05:51:28;101393.34;;;6.36;89.10
51289;BME280;37372;52.294;5.152;2023-02-23T05:53:54;101399.47;;;6.38;88.95
51289;BME280;37372;52.294;5.152;2023-02-23T05:56:24;101403.19;;;6.37;89.28
51289;BME280;37372;52.294;5.152;2023-02-23T05:58:52;101400.47;;;6.37;89.15
51289;BME280;37372;52.294;5.152;2023-02-23T06:01:20;101406.97;;;6.36;89.24
51289;BME280;37372;52.294;5.152;2023-02-23T06:03:50;101403.19;;;6.37;89.27
51289;BME280;37372;52.294;5.152;2023-02-23T06:06:20;101405.75;;;6.38;88.84
51289;BME280;37372;52.294;5.152;2023-02-23T06:08:49;101402.84;;;6.40;89.29
51289;BME280;37372;52.294;5.152;2023-02-23T06:11:20;101409.56;;;6.44;89.38
51289;BME280;37372;52.294;5.152;2023-02-23T06:13:52;101413.19;;;6.44;89.01
51289;BME280;37372;52.294;5.152;2023-02-23T06:16:21;101407.91;;;6.43;88.83
51289;BME280;37372;52.294;5.152;2023-02-23T06:18:50;101417.19;;;6.48;89.24
51289;BME280;37372;52.294;5.152;2023-02-23T06:21:22;101416.84;;;6.51;89.04
51289;BME280;37372;52.294;5.152;2023-02-23T06:23:52;101418.03;;;6.49;88.73
51289;BME280;37372;52.294;5.152;2023-02-23T06:26:19;101414.47;;;6.48;88.89
51289;BME280;37372;52.294;5.152;2023-02-23T06:28:51;101417.41;;;6.47;88.75
51289;BME280;37372;52.294;5.152;2023-02-23T06:31:27;101428.09;;;6.48;89.08
51289;BME280;37372;52.294;5.152;2023-02-23T06:33:56;101423.13;;;6.52;88.95
51289;BME280;37372;52.294;5.152;2023-02-23T06:36:23;101432.50;;;6.49;88.92
51289;BME280;37372;52.294;5.152;2023-02-23T06:39:10;101427.91;;;6.50;88.92
51289;BME280;37372;52.294;5.152;2023-02-23T06:41:36;101440.97;;;6.55;88.75
51289;BME280;37372;52.294;5.152;2023-02-23T06:44:02;101438.88;;;6.57;88.55
51289;BME280;37372;52.294;5.152;2023-02-23T06:46:29;101447.94;;;6.57;88.55
51289;BME280;37372;52.294;5.152;2023-02-23T06:48:57;101438.53;;;6.60;88.52
51289;BME280;37372;52.294;5.152;2023-02-23T06:51:24;101444.44;;;6.63;87.90
51289;BME280;37372;52.294;5.152;2023-02-23T06:54:01;101442.09;;;6.60;88.24
51289;BME280;37372;52.294;5.152;2023-02-23T06:56:27;101449.03;;;6.63;87.93
51289;BME280;37372;52.294;5.152;2023-02-23T06:58:53;101450.91;;;6.62;87.92
51289;BME280;37372;52.294;5.152;2023-02-23T07:01:22;101454.03;;;6.59;87.77
51289;BME280;37372;52.294;5.152;2023-02-23T07:03:56;101463.69;;;6.62;87.91
51289;BME280;37372;52.294;5.152;2023-02-23T07:06:21;101466.22;;;6.63;88.10
51289;BME280;37372;52.294;5.152;2023-02-23T07:08:51;101471.31;;;6.66;88.21
51289;BME280;37372;52.294;5.152;2023-02-23T07:11:20;101469.63;;;6.65;88.18
51289;BME280;37372;52.294;5.152;2023-02-23T07:13:58;101477.63;;;6.67;88.21
51289;BME280;37372;52.294;5.152;2023-02-23T07:16:24;101482.44;;;6.65;88.23
51289;BME280;37372;52.294;5.152;2023-02-23T07:18:52;101485.50;;;6.62;88.24
51289;BME280;37372;52.294;5.152;2023-02-23T07:21:19;101490.59;;;6.65;89.00
51289;BME280;37372;52.294;5.152;2023-02-23T07:24:00;101488.16;;;6.70;88.47
51289;BME280;37372;52.294;5.152;2023-02-23T07:26:27;101494.06;;;6.73;88.54
51289;BME280;37372;52.294;5.152;2023-02-23T07:28:53;101495.38;;;6.77;88.42
51289;BME280;37372;52.294;5.152;2023-02-23T07:31:22;101494.72;;;6.75;88.28
51289;BME280;37372;52.294;5.152;2023-02-23T07:33:55;101492.91;;;6.83;88.42
51289;BME280;37372;52.294;5.152;2023-02-23T07:36:27;101500.94;;;6.84;88.17
51289;BME280;37372;52.294;5.152;2023-02-23T07:38:53;101501.78;;;6.85;88.01
51289;BME280;37372;52.294;5.152;2023-02-23T07:41:21;101511.25;;;6.89;88.01
51289;BME280;37372;52.294;5.152;2023-02-23T07:43:59;101510.22;;;6.90;87.66
51289;BME280;37372;52.294;5.152;2023-02-23T07:46:26;101512.75;;;6.91;87.60
51289;BME280;37372;52.294;5.152;2023-02-23T07:48:51;101525.44;;;6.99;87.55
51289;BME280;37372;52.294;5.152;2023-02-23T07:51:20;101521.66;;;7.00;87.76
51289;BME280;37372;52.294;5.152;2023-02-23T07:53:53;101517.06;;;7.00;87.97
51289;BME280;37372;52.294;5.152;2023-02-23T07:56:21;101522.59;;;7.07;87.36
51289;BME280;37372;52.294;5.152;2023-02-23T07:58:51;101523.50;;;7.14;86.48
51289;BME280;37372;52.294;5.152;2023-02-23T08:01:20;101524.34;;;7.15;85.85
51289;BME280;37372;52.294;5.152;2023-02-23T08:03:52;101520.78;;;7.29;85.24
51289;BME280;37372;52.294;5.152;2023-02-23T08:06:20;101526.44;;;7.13;85.48
51289;BME280;37372;52.294;5.152;2023-02-23T08:08:50;101528.88;;;7.07;86.34
51289;BME280;37372;52.294;5.152;2023-02-23T08:11:20;101535.28;;;7.15;86.70
51289;BME280;37372;52.294;5.152;2023-02-23T08:13:51;101531.97;;;7.19;86.67
51289;BME280;37372;52.294;5.152;2023-02-23T08:16:22;101535.63;;;7.26;85.88
51289;BME280;37372;52.294;5.152;2023-02-23T08:18:49;101539.88;;;7.29;86.12
51289;BME280;37372;52.294;5.152;2023-02-23T08:21:20;101539.28;;;7.33;86.45
51289;BME280;37372;52.294;5.152;2023-02-23T08:23:50;101537.59;;;7.32;86.36
51289;BME280;37372;52.294;5.152;2023-02-23T08:26:20;101545.34;;;7.50;85.54
51289;BME280;37372;52.294;5.152;2023-02-23T08:28:52;101551.97;;;7.41;85.87
51289;BME280;37372;52.294;5.152;2023-02-23T08:31:19;101555.16;;;7.45;85.36
51289;BME280;37372;52.294;5.152;2023-02-23T08:33:49;101559.84;;;7.51;84.74
51289;BME280;37372;52.294;5.152;2023-02-23T08:36:19;101560.41;;;7.46;84.91
51289;BME280;37372;52.294;5.152;2023-02-23T08:38:50;101562.38;;;7.52;85.82
51289;BME280;37372;52.294;5.152;2023-02-23T08:41:21;101571.34;;;7.46;85.17
51289;BME280;37372;52.294;5.152;2023-02-23T08:43:50;101565.09;;;7.52;84.83
51289;BME280;37372;52.294;5.152;2023-02-23T08:46:20;101568.25;;;7.49;84.75
51289;BME280;37372;52.294;5.152;2023-02-23T08:48:50;101572.09;;;7.55;84.54
51289;BME280;37372;52.294;5.152;2023-02-23T08:51:20;101567.47;;;7.55;84.35
51289;BME280;37372;52.294;5.152;2023-02-23T08:53:53;101571.56;;;7.66;83.42
51289;BME280;37372;52.294;5.152;2023-02-23T08:56:23;101578.44;;;7.41;83.42
51289;BME280;37372;52.294;5.152;2023-02-23T08:58:50;101570.75;;;7.51;84.67
51289;BME280;37372;52.294;5.152;2023-02-23T09:01:23;101570.75;;;7.51;84.35
51289;BME280;37372;52.294;5.152;2023-02-23T09:03:49;101573.19;;;7.60;84.41
51289;BME280;37372;52.294;5.152;2023-02-23T09:06:21;101580.78;;;7.65;83.84
51289;BME280;37372;52.294;5.152;2023-02-23T09:08:51;101580.41;;;7.68;83.58
51289;BME280;37372;52.294;5.152;2023-02-23T09:11:20;101584.97;;;7.61;83.99
51289;BME280;37372;52.294;5.152;2023-02-23T09:13:49;101585.88;;;7.68;83.27
51289;BME280;37372;52.294;5.152;2023-02-23T09:16:19;101586.16;;;7.73;82.52
51289;BME280;37372;52.294;5.152;2023-02-23T09:18:52;101590.88;;;7.65;82.93
51289;BME280;37372;52.294;5.152;2023-02-23T09:21:20;101596.34;;;7.65;84.20
51289;BME280;37372;52.294;5.152;2023-02-23T09:23:52;101586.38;;;7.57;83.48
51289;BME280;37372;52.294;5.152;2023-02-23T09:26:23;101590.78;;;7.58;82.80
51289;BME280;37372;52.294;5.152;2023-02-23T09:28:51;101602.75;;;7.57;83.42
51289;BME280;37372;52.294;5.152;2023-02-23T09:31:22;101610.69;;;7.52;82.66
51289;BME280;37372;52.294;5.152;2023-02-23T09:34:25;101610.22;;;7.48;84.24
51289;BME280;37372;52.294;5.152;2023-02-23T09:37:29;101606.53;;;7.56;83.73
51289;BME280;37372;52.294;5.152;2023-02-23T09:39:55;101604.25;;;7.59;84.06
51289;BME280;37372;52.294;5.152;2023-02-23T09:42:36;101604.06;;;7.61;84.16
51289;BME280;37372;52.294;5.152;2023-02-23T09:45:51;101605.28;;;7.73;84.11
51289;BME280;37372;52.294;5.152;2023-02-23T09:48:35;101610.97;;;7.78;84.38
51289;BME280;37372;52.294;5.152;2023-02-23T09:51:14;101606.41;;;7.85;83.88
51289;BME280;37372;52.294;5.152;2023-02-23T09:54:04;101605.91;;;7.97;82.95
51289;BME280;37372;52.294;5.152;2023-02-23T10:06:29;101609.13;;;8.00;83.11
51289;BME280;37372;52.294;5.152;2023-02-23T10:09:20;101627.56;;;7.98;82.83
51289;BME280;37372;52.294;5.152;2023-02-23T10:12:09;101618.94;;;7.95;82.20
51289;BME280;37372;52.294;5.152;2023-02-23T10:23:59;101632.72;;;7.86;81.63
51289;BME280;37372;52.294;5.152;2023-02-23T10:26:37;101633.03;;;7.77;81.15
51289;BME280;37372;52.294;5.152;2023-02-23T10:29:16;101637.75;;;7.68;82.75
51289;BME280;37372;52.294;5.152;2023-02-23T10:31:47;101640.66;;;7.81;82.72
51289;BME280;37372;52.294;5.152;2023-02-23T10:37:31;101643.25;;;7.90;81.78
51289;BME280;37372;52.294;5.152;2023-02-23T10:40:04;101636.47;;;7.85;81.75
51289;BME280;37372;52.294;5.152;2023-02-23T10:42:34;101638.69;;;7.75;81.79
51289;BME280;37372;52.294;5.152;2023-02-23T10:45:01;101647.25;;;7.72;83.12
51289;BME280;37372;52.294;5.152;2023-02-23T10:47:31;101649.72;;;7.67;83.85
51289;BME280;37372;52.294;5.152;2023-02-23T10:50:00;101646.53;;;7.64;83.45
51289;BME280;37372;52.294;5.152;2023-02-23T10:52:32;101637.00;;;7.59;84.16
51289;BME280;37372;52.294;5.152;2023-02-23T10:55:06;101644.41;;;7.80;83.46
51289;BME280;37372;52.294;5.152;2023-02-23T10:57:42;101638.19;;;7.86;83.05
51289;BME280;37372;52.294;5.152;2023-02-23T11:00:39;101641.84;;;7.94;83.43
51289;BME280;37372;52.294;5.152;2023-02-23T11:06:32;101638.47;;;8.13;82.53
51289;BME280;37372;52.294;5.152;2023-02-23T11:09:20;101649.31;;;8.28;82.06
51289;BME280;37372;52.294;5.152;2023-02-23T11:12:16;101651.53;;;8.60;81.17
51289;BME280;37372;52.294;5.152;2023-02-23T11:14:56;101650.81;;;8.52;79.80
51289;BME280;37372;52.294;5.152;2023-02-23T11:20:05;101653.66;;;8.65;80.82
51289;BME280;37372;52.294;5.152;2023-02-23T11:22:35;101656.94;;;8.54;78.74
51289;BME280;37372;52.294;5.152;2023-02-23T11:25:14;101658.03;;;8.59;80.08
51289;BME280;37372;52.294;5.152;2023-02-23T11:27:45;101661.88;;;8.93;78.87
51289;BME280;37372;52.294;5.152;2023-02-23T11:30:19;101665.19;;;8.88;77.65
51289;BME280;37372;52.294;5.152;2023-02-23T11:32:58;101671.53;;;8.89;75.18
51289;BME280;37372;52.294;5.152;2023-02-23T11:35:34;101665.88;;;8.69;75.28
51289;BME280;37372;52.294;5.152;2023-02-23T11:38:23;101666.28;;;8.66;76.28
51289;BME280;37372;52.294;5.152;2023-02-23T11:41:17;101663.72;;;8.58;78.75
51289;BME280;37372;52.294;5.152;2023-02-23T11:44:20;101658.69;;;8.61;77.08
51289;BME280;37372;52.294;5.152;2023-02-23T11:46:49;101664.81;;;8.63;77.38
51289;BME280;37372;52.294;5.152;2023-02-23T11:49:26;101662.69;;;8.37;77.55
51289;BME280;37372;52.294;5.152;2023-02-23T11:51:55;101657.88;;;8.39;78.42
51289;BME280;37372;52.294;5.152;2023-02-23T11:54:31;101660.59;;;8.39;77.15
51289;BME280;37372;52.294;5.152;2023-02-23T11:56:57;101672.03;;;8.28;79.44
51289;BME280;37372;52.294;5.152;2023-02-23T11:59:34;101662.66;;;8.16;79.63
51289;BME280;37372;52.294;5.152;2023-02-23T12:02:26;101670.84;;;8.16;80.38
51289;BME280;37372;52.294;5.152;2023-02-23T12:16:11;101658.81;;;8.32;79.27
51289;BME280;37372;52.294;5.152;2023-02-23T12:19:21;101655.84;;;8.48;78.32
51289;BME280;37372;52.294;5.152;2023-02-23T12:22:12;101658.13;;;8.73;78.71
51289;BME280;37372;52.294;5.152;2023-02-23T12:27:43;101665.69;;;8.99;76.91
51289;BME280;37372;52.294;5.152;2023-02-23T12:39:13;101665.09;;;8.47;77.83
51289;BME280;37372;52.294;5.152;2023-02-23T12:50:55;101670.41;;;8.55;78.13
51289;BME280;37372;52.294;5.152;2023-02-23T12:53:38;101666.63;;;8.56;79.03
51289;BME280;37372;52.294;5.152;2023-02-23T13:05:34;101653.25;;;8.40;80.47
51289;BME280;37372;52.294;5.152;2023-02-23T13:08:28;101654.34;;;8.46;79.69
51289;BME280;37372;52.294;5.152;2023-02-23T13:11:15;101651.56;;;8.39;79.63
51289;BME280;37372;52.294;5.152;2023-02-23T13:19:16;101643.88;;;7.92;82.39
51289;BME280;37372;52.294;5.152;2023-02-23T13:31:34;101649.28;;;7.85;83.85
51289;BME280;37372;52.294;5.152;2023-02-23T13:34:41;101652.63;;;8.02;83.57
51289;BME280;37372;52.294;5.152;2023-02-23T13:37:14;101649.47;;;7.83;83.02
51289;BME280;37372;52.294;5.152;2023-02-23T13:55:02;101659.47;;;8.55;80.96
51289;BME280;37372;52.294;5.152;2023-02-23T13:57:47;101664.59;;;8.65;79.63
51289;BME280;37372;52.294;5.152;2023-02-23T14:00:21;101665.88;;;8.69;80.14
51289;BME280;37372;52.294;5.152;2023-02-23T14:02:48;101670.03;;;8.86;78.05
51289;BME280;37372;52.294;5.152;2023-02-23T14:05:27;101666.91;;;8.89;79.07
51289;BME280;37372;52.294;5.152;2023-02-23T14:07:55;101667.38;;;9.00;77.77
51289;BME280;37372;52.294;5.152;2023-02-23T14:10:37;101661.47;;;8.68;78.95
51289;BME280;37372;52.294;5.152;2023-02-23T14:15:46;101664.16;;;8.61;78.78
51289;BME280;37372;52.294;5.152;2023-02-23T14:18:48;101668.41;;;8.64;77.79
51289;BME280;37372;52.294;5.152;2023-02-23T14:21:30;101669.13;;;8.51;78.73
51289;BME280;37372;52.294;5.152;2023-02-23T14:24:25;101670.84;;;7.95;80.46
51289;BME280;37372;52.294;5.152;2023-02-23T14:32:46;101682.63;;;7.29;83.01
51289;BME280;37372;52.294;5.152;2023-02-23T14:38:40;101687.41;;;7.13;83.33
51289;BME280;37372;52.294;5.152;2023-02-23T14:41:06;101689.59;;;7.02;83.78
51289;BME280;37372;52.294;5.152;2023-02-23T14:43:42;101689.09;;;6.99;82.44
51289;BME280;37372;52.294;5.152;2023-02-23T14:46:20;101695.41;;;6.99;82.78
51289;BME280;37372;52.294;5.152;2023-02-23T14:49:57;101688.75;;;7.02;82.21
51289;BME280;37372;52.294;5.152;2023-02-23T14:52:26;101701.41;;;6.95;82.45
51289;BME280;37372;52.294;5.152;2023-02-23T14:57:40;101706.84;;;6.80;82.96
51289;BME280;37372;52.294;5.152;2023-02-23T15:03:09;101704.75;;;6.67;83.56
51289;BME280;37372;52.294;5.152;2023-02-23T15:05:43;101698.03;;;6.55;83.46
51289;BME280;37372;52.294;5.152;2023-02-23T15:08:30;101696.84;;;6.58;82.94
51289;BME280;37372;52.294;5.152;2023-02-23T15:11:03;101702.41;;;6.64;83.44
51289;BME280;37372;52.294;5.152;2023-02-23T15:13:34;101710.75;;;6.63;83.47
51289;BME280;37372;52.294;5.152;2023-02-23T15:16:20;101705.38;;;6.55;83.02
51289;BME280;37372;52.294;5.152;2023-02-23T15:18:52;101709.13;;;6.54;82.06
51289;BME280;37372;52.294;5.152;2023-02-23T15:21:22;101711.66;;;6.55;82.25
51289;BME280;37372;52.294;5.152;2023-02-23T15:24:32;101725.25;;;6.40;83.50
51289;BME280;37372;52.294;5.152;2023-02-23T15:26:41;101732.28;;;6.35;83.78
51289;BME280;37372;52.294;5.152;2023-02-23T15:31:46;101724.94;;;6.12;84.80
51289;BME280;37372;52.294;5.152;2023-02-23T15:34:39;101733.00;;;6.06;85.09
51289;BME280;37372;52.294;5.152;2023-02-23T15:37:43;101727.97;;;6.17;85.73
51289;BME280;37372;52.294;5.152;2023-02-23T15:40:44;101730.41;;;6.12;86.01
51289;BME280;37372;52.294;5.152;2023-02-23T15:43:10;101739.09;;;6.08;84.72
51289;BME280;37372;52.294;5.152;2023-02-23T15:45:58;101741.16;;;6.06;85.03
51289;BME280;37372;52.294;5.152;2023-02-23T15:48:43;101739.63;;;6.03;85.66
51289;BME280;37372;52.294;5.152;2023-02-23T15:57:18;101731.84;;;6.00;84.83
51289;BME280;37372;52.294;5.152;2023-02-23T16:09:13;101732.69;;;6.01;82.83
51289;BME280;37372;52.294;5.152;2023-02-23T16:12:18;101741.69;;;6.01;82.31
51289;BME280;37372;52.294;5.152;2023-02-23T16:15:19;101744.59;;;6.00;81.17
51289;BME280;37372;52.294;5.152;2023-02-23T16:17:51;101742.72;;;6.00;82.35
51289;BME280;37372;52.294;5.152;2023-02-23T16:22:58;101750.38;;;5.96;81.53
51289;BME280;37372;52.294;5.152;2023-02-23T16:25:34;101755.13;;;6.03;82.08
51289;BME280;37372;52.294;5.152;2023-02-23T16:28:02;101755.84;;;5.96;82.32
51289;BME280;37372;52.294;5.152;2023-02-23T16:33:21;101767.56;;;5.97;80.44
51289;BME280;37372;52.294;5.152;2023-02-23T16:35:52;101767.59;;;5.89;79.39